createdAt,value
2022-09-28T00:04:50.319Z,95.48
2022-09-28T00:09:51.892Z,95.88
2022-09-28T00:14:54.016Z,96.19
2022-09-28T00:19:58.039Z,96.45
2022-09-28T00:24:59.720Z,96.16
2022-09-28T00:30:01.594Z,95.50
2022-09-28T00:35:04.043Z,94.86
2022-09-28T00:40:06.227Z,95.25
2022-09-28T00:45:09.920Z,95.17
2022-09-28T00:50:20.474Z,94.47
2022-09-28T00:55:32.194Z,94.71
2022-09-28T01:00:33.856Z,94.68
2022-09-28T01:05:36.707Z,94.74
2022-09-28T01:10:39.598Z,95.84
2022-09-28T01:15:56.512Z,95.71
2022-09-28T01:21:02.968Z,96.35
2022-09-28T01:26:14.470Z,96.63
2022-09-28T01:31:18.578Z,96.51
2022-09-28T01:36:29.777Z,97.23
2022-09-28T01:41:36.579Z,97.44
2022-09-28T01:46:45.498Z,97.55
2022-09-28T01:52:04.846Z,97.12
2022-09-28T01:57:17.723Z,97.22
2022-09-28T02:02:29.654Z,96.68
2022-09-28T02:07:46.728Z,96.76
2022-09-28T02:12:53.990Z,97.06
2022-09-28T02:17:56.120Z,97.96
2022-09-28T02:23:01.746Z,98.06
2022-09-28T02:28:10.162Z,97.75
2022-09-28T02:33:36.781Z,98.78
2022-09-28T02:38:39.445Z,98.58
2022-09-28T02:43:49.419Z,99.09
2022-09-28T02:49:22.110Z,98.40
2022-09-28T02:54:59.553Z,97.26
2022-09-28T03:06:00.426Z,98.62
2022-09-28T03:11:21.007Z,97.76
2022-09-28T03:16:27.545Z,96.87
2022-09-28T03:21:29.358Z,97.30
2022-09-28T03:26:31.138Z,96.98
2022-09-28T03:31:32.953Z,96.76
2022-09-28T03:36:34.642Z,96.76
2022-09-28T03:41:36.868Z,96.67
2022-09-28T03:46:38.744Z,97.76
2022-09-28T03:51:43.309Z,97.81
2022-09-28T03:56:44.989Z,97.81
2022-09-28T04:01:49.789Z,97.68
2022-09-28T04:06:51.544Z,97.13
2022-09-28T04:12:03.227Z,97.40
2022-09-28T04:17:08.381Z,97.22
2022-09-28T04:22:10.340Z,97.05
2022-09-28T04:27:31.594Z,97.22
2022-09-28T04:32:35.371Z,97.73
2022-09-28T04:37:47.030Z,97.03
2022-09-28T04:42:55.821Z,96.41
2022-09-28T04:47:57.722Z,95.55
2022-09-28T04:53:26.930Z,95.59
2022-09-28T04:58:29.852Z,96.25
2022-09-28T05:03:31.800Z,98.11
2022-09-28T05:08:47.270Z,97.97
2022-09-28T05:13:50.490Z,98.38
2022-09-28T05:18:57.032Z,98.91
2022-09-28T05:23:58.802Z,98.64
2022-09-28T05:29:01.111Z,98.71
2022-09-28T05:34:21.275Z,98.39
2022-09-28T05:39:23.097Z,97.57
2022-09-28T05:44:25.922Z,97.81
2022-09-28T05:49:31.706Z,98.31
2022-09-28T05:54:35.372Z,98.18
2022-09-28T05:59:37.078Z,97.56
2022-09-28T06:04:38.701Z,98.28
2022-09-28T06:09:40.485Z,98.02
2022-09-28T06:14:49.989Z,97.94
2022-09-28T06:19:52.342Z,97.87
2022-09-28T06:25:12.702Z,97.95
2022-09-28T06:30:14.521Z,98.25
2022-09-28T06:35:16.250Z,97.51
2022-09-28T06:40:19.187Z,98.09
2022-09-28T06:45:24.518Z,97.97
2022-09-28T06:50:58.245Z,98.06
2022-09-28T06:56:10.295Z,98.60
2022-09-28T07:01:12.199Z,99.61
2022-09-28T07:06:26.747Z,100.00
2022-09-28T07:11:45.819Z,100.00
2022-09-28T07:17:13.235Z,100.00
2022-09-28T07:22:19.452Z,100.00
2022-09-28T07:27:28.131Z,100.00
2022-09-28T07:32:48.489Z,100.00
2022-09-28T07:38:07.559Z,100.00
2022-09-28T07:43:09.271Z,100.00
2022-09-28T07:53:39.236Z,100.00
2022-09-28T07:59:03.639Z,100.00
2022-09-28T08:04:14.125Z,100.00
2022-09-28T08:09:18.163Z,97.54
2022-09-28T08:14:38.840Z,90.29
2022-09-28T08:20:10.613Z,86.23
2022-09-28T08:25:12.466Z,78.92
2022-09-28T08:30:14.432Z,75.51
2022-09-28T08:35:28.592Z,73.59
2022-09-28T08:41:06.350Z,75.23
2022-09-28T08:46:39.442Z,77.46
2022-09-28T08:52:20.652Z,82.78
2022-09-28T08:57:55.791Z,82.76
2022-09-28T09:02:57.673Z,78.74
2022-09-28T09:08:33.232Z,74.98
2022-09-28T09:14:05.659Z,71.87
2022-09-28T09:19:37.841Z,71.85
2022-09-28T09:25:21.320Z,74.79
2022-09-28T09:30:30.472Z,74.86
2022-09-28T09:35:51.542Z,75.64
2022-09-28T09:41:46.665Z,75.69
2022-09-28T09:47:33.457Z,69.89
2022-09-28T09:52:57.281Z,67.62
2022-09-28T09:58:29.717Z,66.25
2022-09-28T10:04:19.976Z,64.27
2022-09-28T10:09:34.979Z,63.57
2022-09-28T10:14:55.393Z,59.39
2022-09-28T10:20:00.010Z,60.40
2022-09-28T10:25:33.917Z,57.94
2022-09-28T10:30:44.555Z,58.44
2022-09-28T10:35:47.857Z,59.33
2022-09-28T10:40:51.977Z,60.17
2022-09-28T10:46:07.144Z,59.29
2022-09-28T10:51:09.763Z,58.68
2022-09-28T10:56:21.965Z,54.09
2022-09-28T11:01:33.782Z,55.12
2022-09-28T11:06:39.042Z,53.43
2022-09-28T11:11:43.017Z,53.30
2022-09-28T11:16:45.749Z,51.98
2022-09-28T11:21:48.251Z,53.92
2022-09-28T11:27:02.018Z,50.28
2022-09-28T11:32:06.454Z,51.11
2022-09-28T11:37:54.763Z,49.84
2022-09-28T11:43:44.459Z,49.93
2022-09-28T11:48:54.396Z,49.93
2022-09-28T11:54:05.162Z,50.21
2022-09-28T11:59:14.638Z,50.47
2022-09-28T12:04:33.650Z,50.20
2022-09-28T12:09:43.565Z,49.10
2022-09-28T12:15:00.491Z,50.09
2022-09-28T12:20:20.853Z,51.42
2022-09-28T12:25:23.650Z,51.82
2022-09-28T12:30:26.515Z,52.19
2022-09-28T12:35:44.881Z,50.73
2022-09-28T12:40:52.692Z,51.13
2022-09-28T12:46:23.762Z,52.64
2022-09-28T12:51:55.111Z,52.80
2022-09-28T12:57:20.551Z,51.29
2022-09-28T13:02:37.325Z,52.62
2022-09-28T13:08:04.162Z,56.23
2022-09-28T13:13:20.491Z,58.76
2022-09-28T13:18:40.751Z,67.02
2022-09-28T13:23:45.448Z,68.83
2022-09-28T13:28:51.513Z,69.81
2022-09-28T13:33:54.067Z,69.89
2022-09-28T13:38:57.347Z,70.86
2022-09-28T13:44:21.320Z,71.29
2022-09-28T13:49:27.819Z,70.01
2022-09-28T13:55:25.468Z,67.64
2022-09-28T14:00:49.701Z,65.35
2022-09-28T14:06:04.079Z,66.27
2022-09-28T14:11:36.865Z,66.20
2022-09-28T14:16:40.497Z,65.34
2022-09-28T14:22:16.229Z,66.10
2022-09-28T14:27:26.844Z,66.76
2022-09-28T14:32:36.568Z,70.05
2022-09-28T14:37:58.441Z,68.39
2022-09-28T14:43:25.100Z,69.30
2022-09-28T14:48:50.996Z,70.60
2022-09-28T14:54:04.838Z,70.14
2022-09-28T14:59:19.514Z,67.27
2022-09-28T15:04:23.865Z,64.61
2022-09-28T15:09:38.477Z,63.98
2022-09-28T15:15:02.311Z,65.89
2022-09-28T15:20:23.790Z,64.46
2022-09-28T15:25:33.042Z,65.70
2022-09-28T15:30:36.539Z,65.92
2022-09-28T15:35:38.787Z,67.96
2022-09-28T15:40:41.028Z,68.88
2022-09-28T15:45:44.633Z,70.55
2022-09-28T15:51:11.452Z,71.31
2022-09-28T15:56:13.357Z,73.08
2022-09-28T16:01:36.843Z,70.57
2022-09-28T16:06:40.975Z,71.07
2022-09-28T16:11:42.763Z,73.10
2022-09-28T16:16:48.812Z,74.20
2022-09-28T16:21:56.131Z,74.13
2022-09-28T16:27:04.556Z,75.07
2022-09-28T16:32:45.784Z,76.17
2022-09-28T16:37:56.663Z,76.46
2022-09-28T16:43:02.851Z,76.56
2022-09-28T16:48:04.667Z,77.98
2022-09-28T16:53:32.044Z,78.78
2022-09-28T16:58:34.076Z,80.54
2022-09-28T17:03:35.867Z,80.24
2022-09-28T17:08:37.538Z,80.68
2022-09-28T17:13:39.917Z,80.92
2022-09-28T17:18:41.880Z,80.45
2022-09-28T17:23:44.488Z,83.18
2022-09-28T17:28:46.180Z,82.13
2022-09-28T17:33:47.752Z,83.52
2022-09-28T17:38:50.388Z,84.77
2022-09-28T17:43:56.151Z,84.93
2022-09-28T17:49:02.191Z,86.01
2022-09-28T17:54:06.570Z,88.36
2022-09-28T17:59:13.295Z,86.95
2022-09-28T18:04:33.722Z,85.96
2022-09-28T18:09:38.893Z,85.97
2022-09-28T18:14:40.564Z,85.34
2022-09-28T18:19:42.233Z,84.80
2022-09-28T18:24:43.941Z,84.46
2022-09-28T18:29:45.574Z,84.88
2022-09-28T18:34:47.455Z,84.02
2022-09-28T18:39:49.099Z,83.62
2022-09-28T18:44:50.832Z,83.37
2022-09-28T18:49:52.613Z,84.53
2022-09-28T18:54:54.796Z,84.84
2022-09-28T18:59:56.671Z,84.29
2022-09-28T19:05:02.743Z,83.01
2022-09-28T19:10:05.104Z,83.79
2022-09-28T19:15:07.366Z,83.82
2022-09-28T19:20:10.492Z,84.73
2022-09-28T19:25:13.375Z,83.90
2022-09-28T19:30:15.208Z,85.77
2022-09-28T19:35:16.863Z,85.34
2022-09-28T19:40:18.509Z,84.36
2022-09-28T19:45:20.314Z,85.87
2022-09-28T19:50:42.781Z,87.19
2022-09-28T19:55:51.051Z,86.73
2022-09-28T20:00:52.745Z,87.22
2022-09-28T20:05:58.821Z,87.12
2022-09-28T20:11:00.628Z,86.73
2022-09-28T20:16:06.914Z,86.55
2022-09-28T20:21:17.978Z,83.88
2022-09-28T20:26:23.036Z,84.31
2022-09-28T20:31:25.382Z,84.83
2022-09-28T20:36:29.796Z,84.51
2022-09-28T20:41:36.807Z,84.36
2022-09-28T20:46:45.672Z,84.79
2022-09-28T20:51:50.690Z,85.04
2022-09-28T20:56:52.338Z,85.16
2022-09-28T21:01:53.966Z,85.30
2022-09-28T21:06:55.726Z,85.22
2022-09-28T21:11:57.647Z,85.78
2022-09-28T21:16:59.257Z,85.58
2022-09-28T21:22:01.101Z,85.87
2022-09-28T21:27:02.814Z,85.60
2022-09-28T21:32:04.481Z,85.36
2022-09-28T21:37:06.090Z,85.51
2022-09-28T21:42:08.782Z,85.88
2022-09-28T21:47:11.025Z,85.79
2022-09-28T21:52:12.856Z,87.79
2022-09-28T21:57:14.478Z,86.88
2022-09-28T22:02:16.060Z,86.99
2022-09-28T22:07:17.659Z,89.40
2022-09-28T22:12:19.827Z,89.45
2022-09-28T22:17:21.800Z,89.63
2022-09-28T22:22:26.178Z,89.94
2022-09-28T22:27:31.733Z,89.47
2022-09-28T22:32:33.454Z,88.86
2022-09-28T22:37:36.451Z,89.54
2022-09-28T22:42:39.009Z,89.62
2022-09-28T22:47:40.606Z,89.43
2022-09-28T22:52:42.167Z,89.37
2022-09-28T22:57:43.754Z,89.94
2022-09-28T23:02:45.516Z,89.79
2022-09-28T23:07:47.679Z,88.91
2022-09-28T23:12:49.356Z,88.80
2022-09-28T23:17:52.777Z,89.48
2022-09-28T23:22:54.375Z,90.25
2022-09-28T23:27:56.026Z,89.70
2022-09-28T23:32:57.680Z,90.00
2022-09-28T23:37:59.356Z,88.92
2022-09-28T23:43:00.973Z,88.65
2022-09-28T23:48:03.768Z,89.52
2022-09-28T23:53:05.706Z,90.94
2022-09-28T23:58:07.735Z,91.08
